Time;durP1;ratioP1;P1;durP2;ratioP2;P2;SDS_P1;SDS_P2;PMS_P1;PMS_P2;Temp;Humidity;BMP_temperature;BMP_pressure;BME280_temperature;BME280_humidity;BME280_pressure;Samples;Min_cycle;Max_cycle;Signal;HPM_P1;HPM_P2
2023/06/14 00:00:04;;;;;;;4.97;3.25;;;;;;;;;;5072777;28;20028;-72
2023/06/14 00:02:29;;;;;;;3.83;3.13;;;;;;;;;;5073254;28;20029;-72
2023/06/14 00:04:54;;;;;;;6.15;2.80;;;;;;;;;;5072458;28;20123;-72
2023/06/14 00:07:34;;;;;;;4.78;3.50;;;;;;;;;;5072519;28;20453;-72
2023/06/14 00:10:00;;;;;;;8.88;3.33;;;;;;;;;;5072830;28;20090;-72
2023/06/14 00:12:25;;;;;;;5.82;3.63;;;;;;;;;;5072530;28;20025;-72
2023/06/14 00:14:50;;;;;;;6.15;3.38;;;;;;;;;;5073120;28;20024;-73
2023/06/14 00:17:16;;;;;;;5.97;3.30;;;;;;;;;;5072327;28;20098;-72
2023/06/14 00:19:41;;;;;;;4.10;3.10;;;;;;;;;;5071025;28;20044;-73
2023/06/14 00:22:07;;;;;;;5.78;3.58;;;;;;;;;;5072130;28;20037;-72
2023/06/14 00:24:32;;;;;;;5.18;3.22;;;;;;;;;;5073464;28;20119;-72
2023/06/14 00:26:57;;;;;;;3.45;3.13;;;;;;;;;;5076207;28;20024;-72
2023/06/14 00:29:23;;;;;;;5.28;2.85;;;;;;;;;;5080364;28;20036;-73
2023/06/14 00:31:48;;;;;;;6.25;3.10;;;;;;;;;;5092424;28;20412;-72
2023/06/14 00:34:13;;;;;;;6.00;3.33;;;;;;;;;;5092338;28;20025;-72
2023/06/14 00:36:38;;;;;;;6.60;3.33;;;;;;;;;;5091934;28;20111;-72
2023/06/14 00:39:04;;;;;;;4.10;3.22;;;;;;;;;;5092246;28;20474;-72
2023/06/14 00:41:29;;;;;;;3.60;2.80;;;;;;;;;;5092685;28;20552;-73
2023/06/14 00:43:56;;;;;;;3.75;2.80;;;;;;;;;;5090699;28;20097;-72
2023/06/14 00:46:22;;;;;;;3.78;3.17;;;;;;;;;;5075551;28;20399;-72
2023/06/14 00:48:48;;;;;;;5.45;2.90;;;;;;;;;;5071828;28;20078;-72
2023/06/14 00:51:13;;;;;;;4.82;3.08;;;;;;;;;;5070517;28;20024;-72
2023/06/14 00:53:40;;;;;;;4.55;3.28;;;;;;;;;;5072313;28;20051;-72
2023/06/14 00:56:06;;;;;;;4.00;3.40;;;;;;;;;;5071364;28;20032;-73
2023/06/14 00:58:32;;;;;;;7.13;3.10;;;;;;;;;;5071584;28;20033;-72
2023/06/14 01:00:57;;;;;;;5.97;3.20;;;;;;;;;;5071784;28;20553;-72
2023/06/14 01:03:23;;;;;;;5.25;3.30;;;;;;;;;;5083332;28;20040;-72
2023/06/14 01:06:02;;;;;;;4.40;3.00;;;;;;;;;;5092221;28;20024;-72
2023/06/14 01:08:42;;;;;;;6.80;2.90;;;;;;;;;;5091761;28;20089;-72
2023/06/14 01:11:18;;;;;;;5.10;3.22;;;;;;;;;;5091669;28;20069;-72
2023/06/14 01:13:46;;;;;;;3.28;2.88;;;;;;;;;;5090218;28;20107;-72
2023/06/14 01:16:11;;;;;;;8.20;2.90;;;;;;;;;;5091626;28;20115;-73
2023/06/14 01:18:37;;;;;;;3.95;3.22;;;;;;;;;;5091469;28;20059;-72
2023/06/14 01:21:05;;;;;;;4.20;2.97;;;;;;;;;;5091496;28;20019;-72
2023/06/14 01:23:32;;;;;;;4.75;3.05;;;;;;;;;;5091818;28;20047;-72
2023/06/14 01:25:57;;;;;;;4.70;3.30;;;;;;;;;;5091306;28;20040;-72
2023/06/14 01:28:23;;;;;;;7.43;3.70;;;;;;;;;;5091252;28;20600;-72
2023/06/14 01:30:53;;;;;;;6.65;3.80;;;;;;;;;;5091256;28;20032;-72
2023/06/14 01:33:20;;;;;;;6.60;3.50;;;;;;;;;;5091374;28;20035;-72
2023/06/14 01:35:49;;;;;;;5.97;3.67;;;;;;;;;;5091630;28;20104;-72
2023/06/14 01:38:17;;;;;;;3.72;3.15;;;;;;;;;;5084167;28;20029;-72
2023/06/14 01:40:44;;;;;;;5.70;3.33;;;;;;;;;;5070851;28;20032;-73
2023/06/14 01:43:11;;;;;;;5.40;3.67;;;;;;;;;;5070801;28;20037;-72
2023/06/14 01:45:37;;;;;;;5.82;3.60;;;;;;;;;;5070673;28;20499;-72
2023/06/14 01:48:04;;;;;;;7.95;3.28;;;;;;;;;;5070558;28;20479;-72
2023/06/14 01:50:31;;;;;;;4.22;3.58;;;;;;;;;;5070868;28;20024;-72
2023/06/14 01:52:56;;;;;;;3.70;3.33;;;;;;;;;;5070898;28;20040;-72
2023/06/14 01:55:21;;;;;;;4.28;3.35;;;;;;;;;;5070816;28;20043;-72
2023/06/14 01:57:47;;;;;;;4.57;3.50;;;;;;;;;;5070641;28;20566;-72
2023/06/14 02:00:14;;;;;;;5.80;3.67;;;;;;;;;;5070696;28;20043;-72
2023/06/14 02:02:40;;;;;;;4.07;3.20;;;;;;;;;;5071064;28;20021;-73
2023/06/14 02:05:06;;;;;;;6.13;3.53;;;;;;;;;;5070626;28;20499;-72
2023/06/14 02:07:31;;;;;;;6.30;3.42;;;;;;;;;;5088352;28;20064;-72
2023/06/14 02:09:56;;;;;;;6.28;3.70;;;;;;;;;;5090733;28;20114;-72
2023/06/14 02:12:22;;;;;;;11.15;3.50;;;;;;;;;;5090932;28;20067;-73
2023/06/14 02:14:48;;;;;;;14.52;4.15;;;;;;;;;;5091289;28;20024;-73
2023/06/14 02:17:14;;;;;;;6.80;3.50;;;;;;;;;;5083850;28;20445;-73
2023/06/14 02:19:40;;;;;;;4.93;3.60;;;;;;;;;;5070419;28;20025;-72
2023/06/14 02:22:05;;;;;;;8.32;3.97;;;;;;;;;;5074709;28;20394;-73
2023/06/14 02:24:31;;;;;;;6.90;3.92;;;;;;;;;;5081265;28;20059;-73
2023/06/14 02:26:56;;;;;;;7.18;4.15;;;;;;;;;;5083406;28;20349;-73
2023/06/14 02:29:21;;;;;;;4.78;3.90;;;;;;;;;;5074367;28;20044;-73
2023/06/14 02:31:48;;;;;;;3.78;3.38;;;;;;;;;;5070378;28;20391;-73
2023/06/14 02:34:14;;;;;;;4.63;3.67;;;;;;;;;;5070511;28;20040;-73
2023/06/14 02:36:41;;;;;;;9.90;3.55;;;;;;;;;;5070290;28;20456;-72
2023/06/14 02:39:09;;;;;;;5.10;3.60;;;;;;;;;;5070374;28;20028;-73
2023/06/14 02:41:34;;;;;;;8.55;4.80;;;;;;;;;;5070985;28;20025;-72
2023/06/14 02:44:00;;;;;;;10.85;4.10;;;;;;;;;;5068759;28;20040;-73
2023/06/14 02:46:25;;;;;;;5.97;3.88;;;;;;;;;;5069995;28;20028;-73
2023/06/14 02:48:50;;;;;;;6.88;4.32;;;;;;;;;;5070138;28;20507;-72
2023/06/14 02:51:15;;;;;;;5.10;4.13;;;;;;;;;;5070182;28;20095;-72
2023/06/14 02:53:41;;;;;;;5.03;3.78;;;;;;;;;;5070694;28;20032;-72
2023/06/14 02:56:06;;;;;;;5.75;4.07;;;;;;;;;;5066849;28;20029;-72
2023/06/14 02:58:32;;;;;;;5.47;3.67;;;;;;;;;;5069941;28;20107;-72
2023/06/14 03:01:03;;;;;;;6.00;3.90;;;;;;;;;;5072417;28;20037;-72
2023/06/14 03:03:29;;;;;;;7.35;3.80;;;;;;;;;;5073849;28;20052;-73
2023/06/14 03:05:54;;;;;;;5.85;3.80;;;;;;;;;;5074174;28;20025;-72
2023/06/14 03:08:20;;;;;;;5.53;3.97;;;;;;;;;;5073642;28;20032;-72
2023/06/14 03:10:49;;;;;;;10.52;3.67;;;;;;;;;;5073584;28;20146;-72
2023/06/14 03:13:20;;;;;;;7.80;3.15;;;;;;;;;;5073820;28;20036;-72
2023/06/14 03:15:49;;;;;;;3.53;3.10;;;;;;;;;;5093281;28;20032;-72
2023/06/14 03:18:15;;;;;;;4.47;3.20;;;;;;;;;;5093763;28;20070;-72
2023/06/14 03:20:42;;;;;;;4.50;3.45;;;;;;;;;;5094216;28;20028;-72
2023/06/14 03:23:08;;;;;;;9.30;3.78;;;;;;;;;;5093857;28;20039;-72
2023/06/14 03:25:35;;;;;;;13.68;3.80;;;;;;;;;;5093851;28;20032;-72
2023/06/14 03:28:01;;;;;;;7.22;3.63;;;;;;;;;;5093452;28;20048;-72
2023/06/14 03:30:26;;;;;;;4.63;3.67;;;;;;;;;;5093649;28;20039;-72
2023/06/14 03:32:52;;;;;;;6.35;4.00;;;;;;;;;;5094182;28;20432;-72
2023/06/14 03:35:18;;;;;;;5.00;3.53;;;;;;;;;;5093652;28;20032;-72
2023/06/14 03:37:45;;;;;;;4.05;3.45;;;;;;;;;;5093437;28;20039;-72
2023/06/14 03:40:12;;;;;;;6.05;3.80;;;;;;;;;;5093756;28;20028;-73
2023/06/14 03:42:37;;;;;;;5.28;3.80;;;;;;;;;;5093518;28;20028;-73
2023/06/14 03:45:03;;;;;;;8.63;3.67;;;;;;;;;;5093291;28;20073;-72
2023/06/14 03:47:29;;;;;;;6.95;3.75;;;;;;;;;;5094055;28;20028;-72
2023/06/14 03:49:54;;;;;;;5.38;3.63;;;;;;;;;;5093909;28;20557;-73
2023/06/14 03:52:21;;;;;;;8.82;3.58;;;;;;;;;;5094033;28;20525;-72
2023/06/14 03:54:47;;;;;;;9.50;3.90;;;;;;;;;;5093799;28;20071;-72
2023/06/14 03:57:12;;;;;;;11.68;4.10;;;;;;;;;;5093809;28;20016;-72
2023/06/14 03:59:38;;;;;;;5.03;3.65;;;;;;;;;;5094096;28;20047;-73
2023/06/14 04:02:03;;;;;;;6.70;3.90;;;;;;;;;;5093566;28;20086;-73
2023/06/14 04:04:29;;;;;;;4.35;3.72;;;;;;;;;;5093602;28;20031;-73
2023/06/14 04:06:56;;;;;;;4.35;3.50;;;;;;;;;;5093452;28;20032;-73
2023/06/14 04:09:22;;;;;;;4.88;3.40;;;;;;;;;;5093458;28;20024;-73
2023/06/14 04:11:47;;;;;;;4.35;3.20;;;;;;;;;;5093273;28;20078;-73
2023/06/14 04:14:13;;;;;;;5.82;3.50;;;;;;;;;;5087262;28;20045;-73
2023/06/14 04:16:38;;;;;;;8.57;3.45;;;;;;;;;;5072991;28;20036;-73
2023/06/14 04:19:03;;;;;;;5.03;3.35;;;;;;;;;;5073179;28;20032;-73
2023/06/14 04:21:29;;;;;;;5.13;3.78;;;;;;;;;;5072847;28;20029;-73
2023/06/14 04:23:55;;;;;;;7.13;3.60;;;;;;;;;;5073395;28;20016;-73
2023/06/14 04:26:23;;;;;;;4.63;3.80;;;;;;;;;;5072810;28;20423;-73
2023/06/14 04:28:49;;;;;;;6.65;3.83;;;;;;;;;;5072999;28;20040;-73
2023/06/14 04:31:16;;;;;;;4.88;3.72;;;;;;;;;;5072776;28;20402;-73
2023/06/14 04:33:46;;;;;;;7.10;3.92;;;;;;;;;;5072693;28;20025;-73
2023/06/14 04:36:13;;;;;;;5.55;4.00;;;;;;;;;;5072781;28;20020;-73
2023/06/14 04:38:39;;;;;;;7.03;3.72;;;;;;;;;;5073067;28;20081;-73
2023/06/14 04:41:04;;;;;;;6.82;4.15;;;;;;;;;;5072605;28;20040;-73
2023/06/14 04:43:31;;;;;;;8.73;4.28;;;;;;;;;;5072392;28;20057;-73
2023/06/14 04:45:57;;;;;;;10.73;3.47;;;;;;;;;;5072416;28;20469;-73
2023/06/14 04:48:22;;;;;;;6.38;3.63;;;;;;;;;;5072329;28;20111;-73
2023/06/14 04:50:48;;;;;;;8.85;3.60;;;;;;;;;;5072793;28;20020;-73
2023/06/14 04:53:13;;;;;;;6.10;4.05;;;;;;;;;;5072509;28;20116;-73
2023/06/14 04:55:39;;;;;;;5.32;4.05;;;;;;;;;;5072141;28;20029;-73
2023/06/14 04:58:05;;;;;;;7.13;4.28;;;;;;;;;;5072311;28;20545;-73
2023/06/14 05:00:30;;;;;;;6.45;4.30;;;;;;;;;;5072123;28;20035;-73
2023/06/14 05:02:56;;;;;;;5.13;4.03;;;;;;;;;;5072790;28;20117;-73
2023/06/14 05:05:22;;;;;;;8.90;4.60;;;;;;;;;;5071793;28;20029;-73
2023/06/14 05:07:47;;;;;;;13.90;4.50;;;;;;;;;;5071608;28;20090;-73
2023/06/14 05:10:13;;;;;;;6.43;4.22;;;;;;;;;;5071650;28;20074;-73
2023/06/14 05:12:38;;;;;;;7.82;4.43;;;;;;;;;;5071610;28;20119;-73
2023/06/14 05:15:04;;;;;;;14.15;4.43;;;;;;;;;;5071769;28;20538;-73
2023/06/14 05:17:30;;;;;;;6.68;4.18;;;;;;;;;;5070767;28;20017;-73
2023/06/14 05:19:55;;;;;;;6.55;3.97;;;;;;;;;;5071397;28;20521;-73
2023/06/14 05:22:21;;;;;;;7.97;4.28;;;;;;;;;;5071443;28;20036;-73
2023/06/14 05:24:48;;;;;;;11.50;4.43;;;;;;;;;;5069258;28;20052;-73
2023/06/14 05:27:13;;;;;;;7.20;4.45;;;;;;;;;;5071408;28;20025;-73
2023/06/14 05:29:38;;;;;;;9.13;4.68;;;;;;;;;;5071983;28;20035;-73
2023/06/14 05:32:04;;;;;;;8.80;4.35;;;;;;;;;;5071258;28;20039;-73
2023/06/14 05:34:30;;;;;;;8.38;4.65;;;;;;;;;;5071387;28;20032;-73
2023/06/14 05:36:55;;;;;;;14.68;4.25;;;;;;;;;;5071490;28;20457;-73
2023/06/14 05:39:20;;;;;;;16.23;5.35;;;;;;;;;;5071372;28;20032;-73
2023/06/14 05:41:45;;;;;;;10.32;3.85;;;;;;;;;;5071655;28;20033;-73
2023/06/14 05:44:11;;;;;;;12.45;4.07;;;;;;;;;;5071257;28;20036;-73
2023/06/14 05:46:36;;;;;;;5.78;3.78;;;;;;;;;;5071359;28;20514;-73
2023/06/14 05:49:01;;;;;;;13.05;5.55;;;;;;;;;;5070021;28;20032;-73
2023/06/14 05:51:27;;;;;;;18.23;4.35;;;;;;;;;;5079468;28;20115;-73
2023/06/14 05:53:52;;;;;;;10.55;4.35;;;;;;;;;;5091937;28;20035;-73
2023/06/14 05:56:18;;;;;;;5.53;3.90;;;;;;;;;;5091375;28;20058;-73
2023/06/14 05:58:44;;;;;;;7.22;4.25;;;;;;;;;;5091261;28;20525;-74
2023/06/14 06:01:10;;;;;;;4.13;3.45;;;;;;;;;;5091300;28;20036;-73
2023/06/14 06:03:35;;;;;;;5.30;3.47;;;;;;;;;;5091222;28;20035;-73
2023/06/14 06:06:01;;;;;;;8.93;3.75;;;;;;;;;;5091692;28;20567;-73
2023/06/14 06:08:27;;;;;;;7.63;3.65;;;;;;;;;;5091174;28;20071;-73
2023/06/14 06:10:52;;;;;;;5.25;3.35;;;;;;;;;;5079708;28;20036;-73
2023/06/14 06:13:17;;;;;;;5.15;3.85;;;;;;;;;;5071056;28;20146;-73
2023/06/14 06:15:43;;;;;;;7.00;3.25;;;;;;;;;;5070820;28;20031;-74
2023/06/14 06:18:08;;;;;;;7.53;3.45;;;;;;;;;;5071274;28;20375;-74
2023/06/14 06:20:34;;;;;;;6.03;3.85;;;;;;;;;;5072044;28;20073;-73
2023/06/14 06:22:59;;;;;;;7.22;3.70;;;;;;;;;;5071237;28;20044;-73
2023/06/14 06:25:25;;;;;;;6.97;3.92;;;;;;;;;;5070762;28;20039;-74
2023/06/14 06:27:52;;;;;;;4.38;3.40;;;;;;;;;;5070718;28;20135;-73
2023/06/14 06:30:17;;;;;;;6.03;3.38;;;;;;;;;;5070970;28;20548;-73
2023/06/14 06:32:43;;;;;;;4.28;3.22;;;;;;;;;;5071330;28;20028;-74
2023/06/14 06:35:10;;;;;;;5.60;3.40;;;;;;;;;;5072157;28;20660;-74
2023/06/14 06:37:36;;;;;;;5.32;3.35;;;;;;;;;;5075073;28;20033;-74
2023/06/14 06:40:02;;;;;;;5.13;3.40;;;;;;;;;;5075331;28;20398;-75
2023/06/14 06:42:27;;;;;;;7.40;3.13;;;;;;;;;;5075264;28;20036;-74
2023/06/14 06:44:53;;;;;;;3.50;2.90;;;;;;;;;;5075069;28;20082;-72
2023/06/14 06:47:18;;;;;;;3.72;2.75;;;;;;;;;;5074342;28;20036;-72
2023/06/14 06:49:43;;;;;;;4.95;3.20;;;;;;;;;;5074766;28;20530;-74
2023/06/14 06:52:09;;;;;;;5.20;3.28;;;;;;;;;;5074567;28;20036;-72
2023/06/14 06:54:34;;;;;;;5.18;2.67;;;;;;;;;;5074475;28;20031;-73
2023/06/14 06:57:01;;;;;;;6.28;2.80;;;;;;;;;;5074867;28;20346;-73
2023/06/14 06:59:26;;;;;;;4.75;2.70;;;;;;;;;;5074436;28;20124;-73
2023/06/14 07:01:52;;;;;;;3.67;2.40;;;;;;;;;;5074300;28;20129;-72
2023/06/14 07:04:17;;;;;;;3.15;2.80;;;;;;;;;;5074091;28;20029;-73
2023/06/14 07:06:43;;;;;;;10.93;2.60;;;;;;;;;;5074066;28;20036;-72
2023/06/14 07:09:12;;;;;;;2.42;2.17;;;;;;;;;;5074319;28;20024;-72
2023/06/14 07:11:40;;;;;;;5.28;2.92;;;;;;;;;;5074609;28;20032;-72
2023/06/14 07:14:06;;;;;;;6.85;2.60;;;;;;;;;;5074081;28;20445;-72
2023/06/14 07:16:32;;;;;;;2.92;2.63;;;;;;;;;;5073959;28;20028;-72
2023/06/14 07:18:57;;;;;;;3.60;2.35;;;;;;;;;;5073785;28;20029;-72
2023/06/14 07:21:22;;;;;;;3.38;2.45;;;;;;;;;;5072673;28;20063;-72
2023/06/14 07:23:47;;;;;;;9.77;2.45;;;;;;;;;;5074354;28;20029;-72
2023/06/14 07:26:13;;;;;;;4.55;2.70;;;;;;;;;;5073687;28;20090;-72
2023/06/14 07:28:38;;;;;;;3.22;2.67;;;;;;;;;;5073651;28;20398;-72
2023/06/14 07:31:03;;;;;;;2.85;2.50;;;;;;;;;;5073700;28;20037;-73
2023/06/14 07:33:28;;;;;;;3.63;2.42;;;;;;;;;;5073783;28;20028;-72
2023/06/14 07:35:54;;;;;;;5.68;2.65;;;;;;;;;;5074088;28;20134;-73
2023/06/14 07:38:19;;;;;;;4.53;2.90;;;;;;;;;;5061409;28;20029;-73
2023/06/14 07:40:45;;;;;;;4.18;2.67;;;;;;;;;;5053605;28;20048;-73
2023/06/14 07:43:10;;;;;;;3.17;2.15;;;;;;;;;;5053473;28;20036;-73
2023/06/14 07:45:37;;;;;;;6.65;2.60;;;;;;;;;;5053400;28;20037;-73
2023/06/14 07:48:02;;;;;;;3.38;2.90;;;;;;;;;;5077882;28;20021;-73
2023/06/14 07:50:28;;;;;;;4.07;2.53;;;;;;;;;;5077180;28;20542;-73
2023/06/14 07:52:53;;;;;;;3.55;2.70;;;;;;;;;;5073177;28;20115;-73
2023/06/14 07:55:19;;;;;;;3.10;2.50;;;;;;;;;;5073367;28;20049;-73
2023/06/14 07:57:44;;;;;;;3.35;2.72;;;;;;;;;;5073264;28;20040;-73
2023/06/14 08:00:15;;;;;;;2.90;2.33;;;;;;;;;;5086980;28;20048;-73
2023/06/14 08:02:40;;;;;;;3.50;2.80;;;;;;;;;;5085302;28;20032;-73
2023/06/14 08:05:06;;;;;;;10.27;2.92;;;;;;;;;;5093524;28;20032;-73
2023/06/14 08:07:31;;;;;;;3.17;2.50;;;;;;;;;;5093326;28;20059;-73
2023/06/14 08:09:56;;;;;;;3.33;2.53;;;;;;;;;;5093452;28;20522;-73
2023/06/14 08:12:22;;;;;;;3.75;2.60;;;;;;;;;;5093261;28;20043;-73
2023/06/14 08:14:47;;;;;;;3.05;2.75;;;;;;;;;;5093781;28;20024;-73
2023/06/14 08:17:12;;;;;;;3.45;2.40;;;;;;;;;;5093151;28;20486;-73
2023/06/14 08:19:38;;;;;;;3.00;2.40;;;;;;;;;;5093300;28;20096;-73
2023/06/14 08:22:03;;;;;;;3.00;2.40;;;;;;;;;;5084471;28;20444;-73
2023/06/14 08:24:29;;;;;;;3.40;2.50;;;;;;;;;;5076553;28;20060;-73
2023/06/14 08:26:54;;;;;;;6.70;2.40;;;;;;;;;;5071727;28;20073;-73
2023/06/14 08:29:19;;;;;;;10.00;2.60;;;;;;;;;;5072660;28;20111;-73
2023/06/14 08:31:45;;;;;;;3.28;2.90;;;;;;;;;;5082639;28;20394;-73
2023/06/14 08:34:10;;;;;;;3.83;2.63;;;;;;;;;;5092817;28;20428;-73
2023/06/14 08:36:36;;;;;;;4.80;2.42;;;;;;;;;;5092802;28;20486;-73
2023/06/14 08:39:01;;;;;;;12.52;3.22;;;;;;;;;;5093200;28;20020;-73
2023/06/14 08:41:29;;;;;;;2.85;2.50;;;;;;;;;;5084888;28;20037;-73
2023/06/14 08:43:55;;;;;;;3.53;2.53;;;;;;;;;;5070911;28;20045;-73
2023/06/14 08:46:22;;;;;;;2.50;2.30;;;;;;;;;;5078957;28;20494;-73
2023/06/14 08:48:52;;;;;;;4.72;2.70;;;;;;;;;;5092534;28;20469;-73
2023/06/14 08:51:19;;;;;;;5.57;2.78;;;;;;;;;;5092456;28;20065;-73
2023/06/14 08:53:45;;;;;;;4.80;2.45;;;;;;;;;;5092767;28;20029;-73
2023/06/14 08:56:13;;;;;;;6.57;2.85;;;;;;;;;;5092355;28;20031;-73
2023/06/14 08:58:49;;;;;;;7.97;2.60;;;;;;;;;;5074563;28;20479;-73
2023/06/14 09:01:16;;;;;;;3.10;2.80;;;;;;;;;;5077808;28;20101;-73
2023/06/14 09:03:42;;;;;;;4.57;2.65;;;;;;;;;;5073992;28;20024;-73
2023/06/14 09:06:13;;;;;;;5.70;2.30;;;;;;;;;;5076532;28;20035;-73
2023/06/14 09:08:48;;;;;;;5.00;2.83;;;;;;;;;;5092719;28;20031;-73
2023/06/14 09:11:15;;;;;;;2.75;2.53;;;;;;;;;;5083691;28;20044;-73
2023/06/14 09:13:41;;;;;;;8.23;2.80;;;;;;;;;;5071643;28;20032;-73
2023/06/14 09:16:08;;;;;;;8.70;2.90;;;;;;;;;;5070714;28;20533;-73
2023/06/14 09:18:38;;;;;;;5.57;2.90;;;;;;;;;;5088162;28;20397;-73
2023/06/14 09:21:06;;;;;;;2.95;2.38;;;;;;;;;;5092071;28;20028;-73
2023/06/14 09:23:43;;;;;;;9.52;2.97;;;;;;;;;;5092447;28;20039;-73
2023/06/14 09:26:14;;;;;;;4.93;2.75;;;;;;;;;;5091646;28;20060;-73
2023/06/14 09:28:49;;;;;;;5.63;3.28;;;;;;;;;;5074304;28;20037;-73
2023/06/14 09:31:20;;;;;;;2.83;2.60;;;;;;;;;;5071765;28;20032;-74
2023/06/14 09:33:50;;;;;;;6.28;2.80;;;;;;;;;;5071243;28;20036;-73
2023/06/14 09:36:21;;;;;;;6.82;2.75;;;;;;;;;;5071465;28;20029;-73
2023/06/14 09:39:00;;;;;;;4.32;2.97;;;;;;;;;;5071906;28;20105;-73
2023/06/14 09:41:33;;;;;;;3.30;3.00;;;;;;;;;;5064192;28;20118;-73
2023/06/14 09:44:02;;;;;;;3.42;3.13;;;;;;;;;;5051371;28;20037;-73
2023/06/14 09:46:29;;;;;;;4.43;2.40;;;;;;;;;;5066144;28;20521;-74
2023/06/14 09:48:54;;;;;;;3.15;2.92;;;;;;;;;;5090364;28;20113;-73
2023/06/14 09:51:22;;;;;;;3.13;2.83;;;;;;;;;;5091597;28;20024;-73
2023/06/14 09:53:49;;;;;;;5.88;2.60;;;;;;;;;;5077636;28;20041;-73
2023/06/14 09:56:36;;;;;;;7.00;3.30;;;;;;;;;;5051052;28;20414;-73
2023/06/14 09:59:05;;;;;;;5.43;3.10;;;;;;;;;;5058511;28;20421;-73
2023/06/14 10:01:32;;;;;;;4.28;2.83;;;;;;;;;;5091225;28;20525;-73
2023/06/14 10:04:03;;;;;;;4.90;3.40;;;;;;;;;;5091241;28;20028;-73
2023/06/14 10:06:29;;;;;;;6.95;3.13;;;;;;;;;;5091187;28;20040;-74
2023/06/14 10:08:57;;;;;;;6.43;4.15;;;;;;;;;;5091497;28;20020;-73
2023/06/14 10:11:23;;;;;;;3.40;3.10;;;;;;;;;;5090770;28;20028;-73
2023/06/14 10:13:50;;;;;;;4.88;3.28;;;;;;;;;;5091257;28;20682;-73
2023/06/14 10:16:23;;;;;;;7.00;3.22;;;;;;;;;;5091136;28;20040;-73
2023/06/14 10:19:09;;;;;;;4.13;2.80;;;;;;;;;;5091190;28;20401;-73
2023/06/14 10:21:48;;;;;;;4.50;3.13;;;;;;;;;;5091028;28;20043;-73
2023/06/14 10:24:16;;;;;;;6.93;2.80;;;;;;;;;;5085544;28;20169;-73
2023/06/14 10:26:54;;;;;;;2.78;2.58;;;;;;;;;;5072068;28;20628;-73
2023/06/14 10:29:20;;;;;;;4.03;3.08;;;;;;;;;;5091091;28;20056;-73
2023/06/14 10:31:49;;;;;;;4.82;2.90;;;;;;;;;;5073038;28;20083;-73
2023/06/14 10:34:23;;;;;;;4.25;3.20;;;;;;;;;;5085430;28;20033;-73
2023/06/14 10:37:03;;;;;;;4.03;3.28;;;;;;;;;;5060639;28;20128;-73
2023/06/14 10:39:29;;;;;;;3.65;3.00;;;;;;;;;;5050681;28;20116;-73
2023/06/14 10:41:56;;;;;;;3.72;2.60;;;;;;;;;;5049889;28;20033;-73
2023/06/14 10:44:21;;;;;;;5.20;3.00;;;;;;;;;;5050526;28;20033;-73
2023/06/14 10:46:52;;;;;;;6.03;2.92;;;;;;;;;;5059192;28;20400;-73
2023/06/14 10:49:18;;;;;;;3.33;2.88;;;;;;;;;;5070761;28;20093;-73
2023/06/14 10:51:48;;;;;;;7.07;3.03;;;;;;;;;;5070538;28;20032;-73
2023/06/14 10:54:13;;;;;;;6.15;2.92;;;;;;;;;;5070558;28;20478;-73
2023/06/14 10:56:47;;;;;;;5.47;3.03;;;;;;;;;;5080104;28;20031;-73
2023/06/14 10:59:12;;;;;;;3.22;2.83;;;;;;;;;;5077231;28;20126;-73
2023/06/14 11:01:45;;;;;;;7.95;2.97;;;;;;;;;;5087271;28;20375;-73
2023/06/14 11:04:11;;;;;;;3.10;2.80;;;;;;;;;;5050513;28;20045;-73
2023/06/14 11:06:46;;;;;;;4.82;3.17;;;;;;;;;;5057407;28;20436;-73
2023/06/14 11:09:34;;;;;;;2.90;2.63;;;;;;;;;;5070419;28;20017;-73
2023/06/14 11:12:01;;;;;;;2.80;2.55;;;;;;;;;;5074317;28;20016;-73
2023/06/14 11:14:30;;;;;;;3.42;3.00;;;;;;;;;;5090679;28;20062;-73
2023/06/14 11:16:55;;;;;;;3.40;2.60;;;;;;;;;;5090511;28;20379;-72
2023/06/14 11:19:21;;;;;;;4.95;2.65;;;;;;;;;;5090565;28;20092;-73
2023/06/14 11:21:48;;;;;;;2.72;2.47;;;;;;;;;;5087822;28;20052;-72
2023/06/14 11:24:13;;;;;;;4.65;2.80;;;;;;;;;;5073885;28;20035;-72
2023/06/14 11:26:40;;;;;;;5.47;2.50;;;;;;;;;;5074089;28;20021;-72
2023/06/14 11:29:05;;;;;;;5.30;2.90;;;;;;;;;;5073883;28;20502;-72
2023/06/14 11:31:31;;;;;;;4.07;2.70;;;;;;;;;;5073801;28;20040;-72
2023/06/14 11:33:57;;;;;;;5.65;2.90;;;;;;;;;;5073728;28;20033;-73
2023/06/14 11:36:26;;;;;;;2.95;2.67;;;;;;;;;;5072353;28;20115;-73
2023/06/14 11:38:58;;;;;;;7.40;3.00;;;;;;;;;;5074129;28;20039;-73
2023/06/14 11:41:25;;;;;;;4.25;2.65;;;;;;;;;;5073735;28;20087;-73
2023/06/14 11:43:53;;;;;;;4.43;3.03;;;;;;;;;;5073486;28;20040;-73
2023/06/14 11:46:23;;;;;;;6.47;2.75;;;;;;;;;;5073473;28;20502;-73
2023/06/14 11:48:49;;;;;;;6.03;2.80;;;;;;;;;;5073399;28;20035;-73
2023/06/14 11:51:14;;;;;;;2.88;2.67;;;;;;;;;;5073413;28;20020;-73
2023/06/14 11:53:40;;;;;;;6.93;2.90;;;;;;;;;;5073835;28;20162;-74
2023/06/14 11:56:06;;;;;;;3.50;2.40;;;;;;;;;;5073388;28;20033;-74
2023/06/14 11:58:31;;;;;;;3.05;2.53;;;;;;;;;;5073197;28;20044;-74
2023/06/14 12:00:56;;;;;;;4.10;2.50;;;;;;;;;;5072771;28;20032;-74
2023/06/14 12:03:27;;;;;;;2.97;2.72;;;;;;;;;;5087933;28;20100;-74
2023/06/14 12:06:11;;;;;;;3.55;2.75;;;;;;;;;;5093545;28;20394;-73
2023/06/14 12:08:39;;;;;;;;;;;;;;;;;;5094332;28;20040;-73
2023/06/14 12:11:15;;;;;;;3.17;2.90;;;;;;;;;;5090254;28;20366;-73
2023/06/14 12:13:41;;;;;;;6.30;2.65;;;;;;;;;;5073438;28;20037;-73
2023/06/14 12:16:10;;;;;;;5.40;2.85;;;;;;;;;;5068678;28;20132;-73
2023/06/14 12:18:37;;;;;;;2.85;2.50;;;;;;;;;;5061296;28;20040;-73
2023/06/14 12:21:06;;;;;;;4.38;2.53;;;;;;;;;;5073142;28;20028;-73
2023/06/14 12:23:58;;;;;;;3.00;2.75;;;;;;;;;;5073405;28;20025;-73
2023/06/14 12:26:25;;;;;;;6.18;2.72;;;;;;;;;;5069743;28;20040;-73
2023/06/14 12:28:51;;;;;;;6.60;2.97;;;;;;;;;;5072909;28;20038;-73
2023/06/14 12:31:16;;;;;;;3.80;2.63;;;;;;;;;;5072636;28;20036;-73
2023/06/14 12:33:42;;;;;;;3.95;2.90;;;;;;;;;;5090110;28;20021;-73
2023/06/14 12:36:09;;;;;;;3.85;2.88;;;;;;;;;;5093069;28;20035;-73
2023/06/14 12:38:35;;;;;;;2.80;2.60;;;;;;;;;;5093451;28;20359;-73
2023/06/14 12:41:01;;;;;;;2.80;2.47;;;;;;;;;;5093350;28;20061;-73
2023/06/14 12:43:26;;;;;;;3.05;2.60;;;;;;;;;;5092786;28;20062;-73
2023/06/14 12:45:52;;;;;;;3.75;2.63;;;;;;;;;;5092652;28;20040;-73
2023/06/14 12:48:17;;;;;;;3.00;2.70;;;;;;;;;;5091160;28;20377;-73
2023/06/14 12:50:43;;;;;;;2.95;2.67;;;;;;;;;;5093005;28;20054;-73
2023/06/14 12:53:08;;;;;;;3.97;2.90;;;;;;;;;;5092446;28;20036;-74
2023/06/14 12:55:33;;;;;;;2.78;2.58;;;;;;;;;;5092644;28;20432;-74
2023/06/14 12:57:59;;;;;;;3.70;3.10;;;;;;;;;;5092247;28;20089;-73
2023/06/14 13:00:25;;;;;;;6.20;2.80;;;;;;;;;;5092746;28;20079;-73
2023/06/14 13:02:51;;;;;;;3.15;2.78;;;;;;;;;;5092988;28;20106;-73
2023/06/14 13:05:17;;;;;;;4.80;3.00;;;;;;;;;;5092250;28;20115;-73
2023/06/14 13:07:42;;;;;;;3.67;3.10;;;;;;;;;;5090770;28;20024;-73
2023/06/14 13:10:08;;;;;;;3.63;2.83;;;;;;;;;;5092249;28;20119;-73
2023/06/14 13:12:33;;;;;;;7.03;2.83;;;;;;;;;;5092166;28;20085;-73
2023/06/14 13:14:58;;;;;;;5.53;2.85;;;;;;;;;;5092423;28;20107;-72
2023/06/14 13:17:24;;;;;;;6.53;3.30;;;;;;;;;;5091954;28;20032;-73
2023/06/14 13:19:49;;;;;;;3.80;3.00;;;;;;;;;;5092005;28;20632;-73
2023/06/14 13:22:15;;;;;;;3.47;2.88;;;;;;;;;;5091959;28;20465;-72
2023/06/14 13:24:40;;;;;;;3.03;2.45;;;;;;;;;;5092121;28;20024;-73
2023/06/14 13:27:06;;;;;;;7.70;3.10;;;;;;;;;;5079430;28;20032;-73
2023/06/14 13:29:33;;;;;;;3.53;2.67;;;;;;;;;;5071905;28;20028;-73
2023/06/14 13:31:58;;;;;;;3.15;2.50;;;;;;;;;;5071420;28;20033;-73
2023/06/14 13:34:24;;;;;;;2.92;2.72;;;;;;;;;;5071223;28;20388;-73
2023/06/14 13:36:49;;;;;;;3.20;2.72;;;;;;;;;;5071315;28;20151;-75
2023/06/14 13:39:15;;;;;;;5.63;2.80;;;;;;;;;;5071368;28;20028;-73
2023/06/14 13:41:40;;;;;;;3.78;2.72;;;;;;;;;;5071838;28;20092;-73
2023/06/14 13:44:06;;;;;;;5.20;3.22;;;;;;;;;;5070629;28;20037;-73
2023/06/14 13:46:31;;;;;;;8.25;2.97;;;;;;;;;;5070808;28;20397;-73
2023/06/14 13:48:57;;;;;;;2.97;2.78;;;;;;;;;;5071274;28;20041;-73
2023/06/14 13:51:23;;;;;;;5.70;2.72;;;;;;;;;;5071124;28;20482;-73
2023/06/14 13:53:49;;;;;;;3.80;2.90;;;;;;;;;;5071799;28;20026;-73
2023/06/14 13:56:15;;;;;;;7.45;2.88;;;;;;;;;;5071253;28;20048;-73
2023/06/14 13:58:40;;;;;;;3.83;2.80;;;;;;;;;;5071242;28;20131;-73
2023/06/14 14:01:05;;;;;;;3.28;2.88;;;;;;;;;;5071208;28;20043;-73
2023/06/14 14:03:31;;;;;;;3.58;2.90;;;;;;;;;;5071038;28;20513;-73
2023/06/14 14:05:57;;;;;;;4.28;2.70;;;;;;;;;;5071635;28;20020;-73
2023/06/14 14:08:22;;;;;;;3.70;2.70;;;;;;;;;;5070815;28;20031;-73
2023/06/14 14:10:47;;;;;;;5.95;3.22;;;;;;;;;;5071093;28;20090;-73
2023/06/14 14:13:13;;;;;;;3.70;3.17;;;;;;;;;;5071122;28;20116;-73
2023/06/14 14:15:38;;;;;;;5.85;2.90;;;;;;;;;;5070982;28;20545;-73
2023/06/14 14:18:03;;;;;;;3.90;2.70;;;;;;;;;;5069244;28;20052;-73
2023/06/14 14:20:30;;;;;;;3.15;2.70;;;;;;;;;;5070193;28;20028;-73
2023/06/14 14:22:56;;;;;;;6.00;2.78;;;;;;;;;;5071058;28;20147;-73
2023/06/14 14:25:21;;;;;;;7.93;3.25;;;;;;;;;;5071112;28;20121;-73
2023/06/14 14:27:47;;;;;;;5.65;3.15;;;;;;;;;;5070732;28;20035;-73
2023/06/14 14:30:13;;;;;;;4.82;2.75;;;;;;;;;;5070934;28;20032;-73
2023/06/14 14:32:39;;;;;;;5.75;2.92;;;;;;;;;;5071367;28;20540;-73
2023/06/14 14:35:05;;;;;;;3.47;2.65;;;;;;;;;;5070645;28;20033;-73
2023/06/14 14:37:30;;;;;;;7.57;2.90;;;;;;;;;;5070779;28;20048;-73
2023/06/14 14:39:55;;;;;;;4.38;3.17;;;;;;;;;;5070809;28;20028;-73